Brokaw, Wisconsin
Current Conditions -  °F | °C
As of 10:54 AM on Saturday 25 Oct 2014 (Local Time) from KAUW Reporting Station
Clear Clear  
Wind Chill: 13°   Ceiling: Unl
Heat Index: 13°   Visibility: 10mi
Dew Point:   Wind: 18mph
Humidity: 40%   Direction: 310°NW
Pressure: 29.88"   Gusts: 29mph
Location:  45.03°N, 89.65°W
Report Text: KAUW 251554Z AUTO 31016G25KT 10SM CLR 13/00 A2988 RMK AO2 PK WND 29026/1512 SLP123 T01330000
Loading
Personal Weather Stations






























Interactive Weather Map
Tropical Storm Tracking
New forecast layout! Learn more

10-Day Weather Forecast

Advertisements
Track Severe Weather on mobile